createdAt,value
2018-01-16T00:00:40.404Z,983.3
2018-01-16T00:01:42.805Z,983.3
2018-01-16T00:02:45.205Z,983.3
2018-01-16T00:03:47.610Z,983.5
2018-01-16T00:04:50.015Z,983
2018-01-16T00:05:52.407Z,983.1
2018-01-16T00:06:54.811Z,983.2
2018-01-16T00:07:57.226Z,983.2
2018-01-16T00:08:59.630Z,983.2
2018-01-16T00:10:02.037Z,983.2
2018-01-16T00:11:04.736Z,983.1
2018-01-16T00:12:07.143Z,983.1
2018-01-16T00:13:09.551Z,983.2
2018-01-16T00:14:11.963Z,983.1
2018-01-16T00:15:14.635Z,983
2018-01-16T00:16:17.329Z,982.9
2018-01-16T00:17:19.733Z,983
2018-01-16T00:18:22.136Z,983.2
2018-01-16T00:19:24.545Z,982.9
2018-01-16T00:20:26.951Z,982.9
2018-01-16T00:21:29.358Z,982.8
2018-01-16T00:22:32.335Z,982.7
2018-01-16T00:23:34.742Z,982.9
2018-01-16T00:24:37.145Z,983
2018-01-16T00:25:39.562Z,982.9
2018-01-16T00:26:41.962Z,982.8
2018-01-16T00:27:44.371Z,982.8
2018-01-16T00:28:46.774Z,982.8
2018-01-16T00:29:49.172Z,982.6
2018-01-16T00:30:51.578Z,982.8
2018-01-16T00:31:53.975Z,982.6
2018-01-16T00:32:56.383Z,982.6
2018-01-16T00:33:58.782Z,982.7
2018-01-16T00:35:01.465Z,982.7
2018-01-16T00:36:04.743Z,982.6
2018-01-16T00:37:07.144Z,982.6
2018-01-16T00:38:09.550Z,982.5
2018-01-16T00:39:11.960Z,982.6
2018-01-16T00:40:14.351Z,982.6
2018-01-16T00:41:16.766Z,982.8
2018-01-16T00:42:19.168Z,982.5
2018-01-16T00:43:21.580Z,982.8
2018-01-16T00:44:24.267Z,982.5
2018-01-16T00:45:26.957Z,982.5
2018-01-16T00:46:29.364Z,982.4
2018-01-16T00:47:31.776Z,982.4
2018-01-16T00:48:34.174Z,982.5
2018-01-16T00:49:36.577Z,982.4
2018-01-16T00:50:38.999Z,982.5
2018-01-16T00:51:41.408Z,982.3
2018-01-16T00:52:43.817Z,982.3
2018-01-16T00:53:46.224Z,982.5
2018-01-16T00:54:48.919Z,982.3
2018-01-16T00:55:51.331Z,982.2
2018-01-16T00:56:53.743Z,982.3
2018-01-16T00:57:56.136Z,982.2
2018-01-16T00:58:58.538Z,982.2
2018-01-16T01:00:00.943Z,982.3
2018-01-16T01:01:03.351Z,982.3
2018-01-16T01:02:05.755Z,982.3
2018-01-16T01:03:08.461Z,982.3
2018-01-16T01:04:10.854Z,982.3
2018-01-16T01:05:13.275Z,982.4
2018-01-16T01:06:15.680Z,982.3
2018-01-16T01:07:18.088Z,982.2
2018-01-16T01:08:20.495Z,982.1
2018-01-16T01:09:22.905Z,982.1
2018-01-16T01:10:25.312Z,982.2
2018-01-16T01:11:28.002Z,982.2
2018-01-16T01:12:30.395Z,982.1
2018-01-16T01:13:32.799Z,982.1
2018-01-16T01:14:35.210Z,982
2018-01-16T01:15:37.618Z,982
2018-01-16T01:16:40.028Z,982
2018-01-16T01:17:42.440Z,981.9
2018-01-16T01:18:44.843Z,981.9
2018-01-16T01:19:47.249Z,981.8
2018-01-16T01:20:49.659Z,981.8
2018-01-16T01:21:52.061Z,981.9
2018-01-16T01:22:54.753Z,982
2018-01-16T01:23:57.167Z,981.9
2018-01-16T01:24:59.569Z,981.9
2018-01-16T01:26:01.972Z,981.9
2018-01-16T01:27:04.383Z,982.1
2018-01-16T01:28:06.786Z,982
2018-01-16T01:29:09.196Z,982.1
2018-01-16T01:30:11.606Z,981.9
2018-01-16T01:31:13.995Z,981.9
2018-01-16T01:32:16.702Z,981.9
2018-01-16T01:33:19.103Z,981.7
2018-01-16T01:34:21.513Z,981.8
2018-01-16T01:35:23.920Z,981.8
2018-01-16T01:36:26.330Z,981.8
2018-01-16T01:37:28.741Z,981.5
2018-01-16T01:38:31.132Z,981.8
2018-01-16T01:39:33.547Z,981.8
2018-01-16T01:40:35.949Z,981.9
2018-01-16T01:41:38.355Z,981.9
2018-01-16T01:42:40.764Z,981.8
2018-01-16T01:43:43.174Z,981.9
2018-01-16T01:44:45.582Z,981.8
2018-01-16T01:45:48.003Z,981.8
2018-01-16T01:46:50.402Z,981.8
2018-01-16T01:47:52.819Z,981.8
2018-01-16T01:48:55.229Z,981.7
2018-01-16T01:49:57.635Z,981.6
2018-01-16T01:51:00.041Z,981.8
2018-01-16T01:52:02.444Z,981.9
2018-01-16T01:53:04.851Z,981.9
2018-01-16T01:54:07.254Z,981.8
2018-01-16T01:55:09.652Z,981.9
2018-01-16T01:56:12.061Z,981.8
2018-01-16T01:57:14.486Z,982
2018-01-16T01:58:16.897Z,981.7
2018-01-16T01:59:19.301Z,981.7
2018-01-16T02:00:22.011Z,981.7
2018-01-16T02:01:24.423Z,981.7
2018-01-16T02:02:26.817Z,981.6
2018-01-16T02:03:29.224Z,981.7
2018-01-16T02:04:31.926Z,981.7
2018-01-16T02:05:34.612Z,981.6
2018-01-16T02:06:37.018Z,981.8
2018-01-16T02:07:39.424Z,981.6
2018-01-16T02:08:41.828Z,981.6
2018-01-16T02:09:44.247Z,981.6
2018-01-16T02:10:46.654Z,981.6
2018-01-16T02:11:49.051Z,981.3
2018-01-16T02:12:51.471Z,981.6
2018-01-16T02:13:53.878Z,981.5
2018-01-16T02:14:56.289Z,981.5
2018-01-16T02:15:58.978Z,981.4
2018-01-16T02:17:01.658Z,981.5
2018-01-16T02:18:04.073Z,981.5
2018-01-16T02:19:06.488Z,981.3
2018-01-16T02:20:08.892Z,981.4
2018-01-16T02:21:11.307Z,981.5
2018-01-16T02:22:13.704Z,981.5
2018-01-16T02:23:16.394Z,981.5
2018-01-16T02:24:19.081Z,981.4
2018-01-16T02:25:21.484Z,981.4
2018-01-16T02:26:23.893Z,981.4
2018-01-16T02:27:26.300Z,981.4
2018-01-16T02:28:28.714Z,981.5
2018-01-16T02:29:31.137Z,981.5
2018-01-16T02:30:33.539Z,981.3
2018-01-16T02:31:36.234Z,981.3
2018-01-16T02:32:38.634Z,981.4
2018-01-16T02:33:41.604Z,981.3
2018-01-16T02:34:44.008Z,981.3
2018-01-16T02:35:46.432Z,981.4
2018-01-16T02:36:48.840Z,981.4
2018-01-16T02:37:51.242Z,981.4
2018-01-16T02:38:53.962Z,981.3
2018-01-16T02:39:56.936Z,981.3
2018-01-16T02:40:59.352Z,981.3
2018-01-16T02:42:01.766Z,981.4
2018-01-16T02:43:04.164Z,981.4
2018-01-16T02:44:06.571Z,981.4
2018-01-16T02:45:09.255Z,981.3
2018-01-16T02:46:11.659Z,981.3
2018-01-16T02:47:14.082Z,981.3
2018-01-16T02:48:16.481Z,981.2
2018-01-16T02:49:19.456Z,981.3
2018-01-16T02:50:21.870Z,981.3
2018-01-16T02:51:24.276Z,981.2
2018-01-16T02:52:26.682Z,981.3
2018-01-16T02:53:29.103Z,981.3
2018-01-16T02:54:31.779Z,981.3
2018-01-16T02:55:34.194Z,981.2
2018-01-16T02:56:36.894Z,981.3
2018-01-16T02:57:39.299Z,981.1
2018-01-16T02:58:41.709Z,981.2
2018-01-16T02:59:44.115Z,981.1
2018-01-16T03:00:46.526Z,981.3
2018-01-16T03:01:49.225Z,981.3
2018-01-16T03:02:51.633Z,981.4
2018-01-16T03:03:54.035Z,981.3
2018-01-16T03:04:56.443Z,981.3
2018-01-16T03:05:58.857Z,981.3
2018-01-16T03:07:01.260Z,981.2
2018-01-16T03:08:03.962Z,981.2
2018-01-16T03:09:06.372Z,981.2
2018-01-16T03:10:08.780Z,981.2
2018-01-16T03:11:11.203Z,981.3
2018-01-16T03:12:13.603Z,981.2
2018-01-16T03:13:16.014Z,981.3
2018-01-16T03:14:18.425Z,981.2
2018-01-16T03:15:20.828Z,981.2
2018-01-16T03:16:23.242Z,981.3
2018-01-16T03:17:25.660Z,981.3
2018-01-16T03:18:28.051Z,981.2
2018-01-16T03:19:30.461Z,981.2
2018-01-16T03:20:32.868Z,981.3
2018-01-16T03:21:35.277Z,981.2
2018-01-16T03:22:37.693Z,981.1
2018-01-16T03:23:40.104Z,981.1
2018-01-16T03:24:42.511Z,981.1
2018-01-16T03:25:44.930Z,981
2018-01-16T03:26:47.335Z,981
2018-01-16T03:27:50.031Z,981
2018-01-16T03:28:52.715Z,981
2018-01-16T03:29:55.116Z,981.1
2018-01-16T03:30:57.816Z,981
2018-01-16T03:32:00.504Z,981
2018-01-16T03:33:02.917Z,981.1
2018-01-16T03:34:05.330Z,981
2018-01-16T03:35:07.731Z,981
2018-01-16T03:36:10.145Z,981
2018-01-16T03:37:12.553Z,981
2018-01-16T03:38:14.964Z,981
2018-01-16T03:39:17.368Z,981
2018-01-16T03:40:19.775Z,981
2018-01-16T03:41:22.468Z,981
2018-01-16T03:42:24.881Z,981
2018-01-16T03:43:27.590Z,981
2018-01-16T03:44:29.981Z,981
2018-01-16T03:45:32.675Z,981
2018-01-16T03:46:35.092Z,981
2018-01-16T03:47:37.500Z,981
2018-01-16T03:48:39.911Z,981
2018-01-16T03:49:42.600Z,981.1
2018-01-16T03:50:45.299Z,981
2018-01-16T03:51:47.719Z,981
2018-01-16T03:52:50.130Z,981.1
2018-01-16T03:53:52.545Z,980.9
2018-01-16T03:54:54.955Z,981
2018-01-16T03:55:57.364Z,981
2018-01-16T03:56:59.775Z,981
2018-01-16T03:58:02.469Z,981
2018-01-16T03:59:04.871Z,981
2018-01-16T04:00:07.280Z,981.1
2018-01-16T04:01:09.681Z,981
2018-01-16T04:02:12.099Z,981
2018-01-16T04:03:14.782Z,981
2018-01-16T04:04:17.190Z,981
2018-01-16T04:05:19.599Z,981
2018-01-16T04:06:22.002Z,981
2018-01-16T04:07:24.412Z,981
2018-01-16T04:08:26.817Z,980.9
2018-01-16T04:09:29.226Z,981
2018-01-16T04:10:31.648Z,981
2018-01-16T04:11:34.057Z,980.9
2018-01-16T04:12:36.466Z,980.9
2018-01-16T04:13:38.876Z,981
2018-01-16T04:14:41.286Z,981
2018-01-16T04:15:43.697Z,981
2018-01-16T04:16:46.115Z,980.9
2018-01-16T04:17:48.517Z,980.9
2018-01-16T04:18:50.937Z,980.9
2018-01-16T04:19:53.336Z,980.9
2018-01-16T04:20:55.747Z,981
2018-01-16T04:21:58.160Z,980.9
2018-01-16T04:23:00.563Z,980.9
2018-01-16T04:24:02.964Z,980.9
2018-01-16T04:25:05.379Z,980.8
2018-01-16T04:26:07.781Z,980.8
2018-01-16T04:27:10.466Z,980.8
2018-01-16T04:28:12.874Z,980.8
2018-01-16T04:29:15.281Z,980.7
2018-01-16T04:30:17.965Z,980.8
2018-01-16T04:31:20.381Z,980.8
2018-01-16T04:32:22.789Z,980.8
2018-01-16T04:33:25.201Z,980.8
2018-01-16T04:34:27.599Z,980.8
2018-01-16T04:35:30.004Z,980.8
2018-01-16T04:36:32.417Z,980.8
2018-01-16T04:37:34.832Z,980.8
2018-01-16T04:38:37.236Z,980.8
2018-01-16T04:39:39.649Z,980.8
2018-01-16T04:40:42.368Z,980.8
2018-01-16T04:41:44.791Z,980.8
2018-01-16T04:42:47.198Z,980.7
2018-01-16T04:43:49.873Z,980.7
2018-01-16T04:44:52.282Z,980.7
2018-01-16T04:45:54.977Z,980.7
2018-01-16T04:46:57.397Z,980.6
2018-01-16T04:47:59.811Z,980.6
2018-01-16T04:49:02.497Z,980.6
2018-01-16T04:50:04.908Z,980.6
2018-01-16T04:51:07.330Z,980.6
2018-01-16T04:52:09.736Z,980.6
2018-01-16T04:53:12.141Z,980.6
2018-01-16T04:54:14.551Z,980.6
2018-01-16T04:55:16.951Z,980.6
2018-01-16T04:56:19.375Z,980.6
2018-01-16T04:57:21.786Z,980.7
2018-01-16T04:58:24.186Z,980.7
2018-01-16T04:59:26.606Z,980.7
2018-01-16T05:00:29.056Z,980.7
2018-01-16T05:01:31.439Z,980.7
2018-01-16T05:02:33.849Z,980.7
2018-01-16T05:03:36.260Z,980.7
2018-01-16T05:04:38.668Z,980.7
2018-01-16T05:05:41.071Z,980.7
2018-01-16T05:06:43.484Z,980.7
2018-01-16T05:07:46.467Z,980.7
2018-01-16T05:08:48.882Z,980.7
2018-01-16T05:09:51.569Z,980.6
2018-01-16T05:10:54.282Z,980.6
2018-01-16T05:11:56.694Z,980.6
2018-01-16T05:12:59.109Z,980.6
2018-01-16T05:14:01.512Z,980.7
2018-01-16T05:15:03.930Z,980.6
2018-01-16T05:16:06.628Z,980.5
2018-01-16T05:17:09.019Z,980.6
2018-01-16T05:18:11.711Z,980.6
2018-01-16T05:19:14.404Z,980.6
2018-01-16T05:20:16.817Z,980.5
2018-01-16T05:21:19.221Z,980.6
2018-01-16T05:22:21.628Z,980.6
2018-01-16T05:23:24.314Z,980.6
2018-01-16T05:24:26.735Z,980.6
2018-01-16T05:25:29.153Z,980.6
2018-01-16T05:26:31.557Z,980.6
2018-01-16T05:27:33.964Z,980.6
2018-01-16T05:28:36.377Z,980.6
2018-01-16T05:29:39.065Z,980.5
2018-01-16T05:30:41.481Z,980.6
2018-01-16T05:31:43.885Z,980.6
2018-01-16T05:32:46.294Z,980.6
2018-01-16T05:33:48.700Z,980.5
2018-01-16T05:34:51.111Z,980.6
2018-01-16T05:35:53.523Z,980.6
2018-01-16T05:36:55.930Z,980.7
2018-01-16T05:37:58.336Z,980.6
2018-01-16T05:39:00.751Z,980.7
2018-01-16T05:40:03.439Z,980.7
2018-01-16T05:41:05.860Z,980.6
2018-01-16T05:42:08.539Z,980.6
2018-01-16T05:43:10.954Z,980.7
2018-01-16T05:44:13.364Z,980.7
2018-01-16T05:45:15.779Z,980.7
2018-01-16T05:46:18.183Z,980.7
2018-01-16T05:47:20.590Z,980.7
2018-01-16T05:48:22.991Z,980.7
2018-01-16T05:49:25.392Z,980.8
2018-01-16T05:50:27.820Z,980.7
2018-01-16T05:51:30.226Z,980.7
2018-01-16T05:52:32.667Z,980.7
2018-01-16T05:53:35.056Z,980.7
2018-01-16T05:54:37.471Z,980.7
2018-01-16T05:55:39.887Z,980.7
2018-01-16T05:56:42.310Z,980.8
2018-01-16T05:57:45.005Z,980.8
2018-01-16T05:58:47.438Z,980.7
2018-01-16T05:59:49.827Z,980.7
2018-01-16T06:00:52.227Z,980.8
2018-01-16T06:01:54.920Z,980.7
2018-01-16T06:02:57.334Z,980.7
2018-01-16T06:04:00.311Z,980.7
2018-01-16T06:05:02.708Z,980.8
2018-01-16T06:06:05.131Z,980.7
2018-01-16T06:07:07.541Z,980.7
2018-01-16T06:08:09.962Z,980.8
2018-01-16T06:09:12.362Z,980.8
2018-01-16T06:10:14.774Z,980.8
2018-01-16T06:11:17.174Z,980.8
2018-01-16T06:12:19.600Z,980.8
2018-01-16T06:13:21.995Z,980.8
2018-01-16T06:14:24.421Z,980.8
2018-01-16T06:15:26.829Z,980.8
2018-01-16T06:16:29.528Z,980.8
2018-01-16T06:17:32.518Z,980.8
2018-01-16T06:18:34.923Z,980.7
2018-01-16T06:19:37.334Z,980.7
2018-01-16T06:20:40.023Z,980.7
2018-01-16T06:21:42.428Z,980.8
2018-01-16T06:22:44.836Z,980.8
2018-01-16T06:23:47.254Z,980.7
2018-01-16T06:24:49.944Z,980.7
2018-01-16T06:25:52.346Z,980.7
2018-01-16T06:26:55.052Z,980.7
2018-01-16T06:27:57.467Z,980.7
2018-01-16T06:29:00.165Z,980.7
2018-01-16T06:30:02.863Z,980.7
2018-01-16T06:31:05.567Z,980.6
2018-01-16T06:32:07.978Z,980.6
2018-01-16T06:33:10.391Z,980.6
2018-01-16T06:34:12.808Z,980.6
2018-01-16T06:35:15.212Z,980.6
2018-01-16T06:36:17.625Z,980.6
2018-01-16T06:37:20.039Z,980.6
2018-01-16T06:38:22.430Z,980.6
2018-01-16T06:39:24.835Z,980.6
2018-01-16T06:40:27.242Z,980.6
2018-01-16T06:41:29.661Z,980.6
2018-01-16T06:42:32.067Z,980.6
2018-01-16T06:43:34.479Z,980.6
2018-01-16T06:44:36.887Z,980.6
2018-01-16T06:45:39.303Z,980.7
2018-01-16T06:46:41.718Z,980.6
2018-01-16T06:47:44.111Z,980.6
2018-01-16T06:48:46.817Z,980.6
2018-01-16T06:49:49.231Z,980.6
2018-01-16T06:50:51.637Z,980.6
2018-01-16T06:51:54.045Z,980.6
2018-01-16T06:52:56.453Z,980.5
2018-01-16T06:53:58.860Z,980.5
2018-01-16T06:55:01.561Z,980.6
2018-01-16T06:56:04.255Z,980.6
2018-01-16T06:57:06.663Z,980.6
2018-01-16T06:58:09.068Z,980.7
2018-01-16T06:59:11.482Z,980.6
2018-01-16T07:00:13.888Z,980.6
2018-01-16T07:01:16.600Z,980.6
2018-01-16T07:02:18.989Z,980.5
2018-01-16T07:03:21.398Z,980.6
2018-01-16T07:04:23.820Z,980.5
2018-01-16T07:05:26.223Z,980.6
2018-01-16T07:06:28.636Z,980.5
2018-01-16T07:07:31.046Z,980.6
2018-01-16T07:08:33.451Z,980.5
2018-01-16T07:09:35.871Z,980.5
2018-01-16T07:10:38.284Z,980.5
2018-01-16T07:11:40.687Z,980.5
2018-01-16T07:12:43.104Z,980.4
2018-01-16T07:13:45.509Z,980.4
2018-01-16T07:14:47.926Z,980.5
2018-01-16T07:15:50.624Z,980.5
2018-01-16T07:16:53.080Z,980.5
2018-01-16T07:17:55.442Z,980.5
2018-01-16T07:18:57.857Z,980.5
2018-01-16T07:20:00.569Z,980.5
2018-01-16T07:21:02.987Z,980.6
2018-01-16T07:22:05.386Z,980.5
2018-01-16T07:23:08.077Z,980.5
2018-01-16T07:24:10.487Z,980.5
2018-01-16T07:25:12.892Z,980.5
2018-01-16T07:26:15.302Z,980.5
2018-01-16T07:27:17.716Z,980.5
2018-01-16T07:28:20.129Z,980.5
2018-01-16T07:29:22.540Z,980.6
2018-01-16T07:30:24.948Z,980.6
2018-01-16T07:31:27.365Z,980.7
2018-01-16T07:32:29.762Z,980.7
2018-01-16T07:33:32.459Z,980.8
2018-01-16T07:34:34.865Z,980.7
2018-01-16T07:35:37.553Z,980.7
2018-01-16T07:36:39.948Z,980.7
2018-01-16T07:37:42.362Z,980.8
2018-01-16T07:38:44.778Z,980.7
2018-01-16T07:39:47.194Z,980.6
2018-01-16T07:40:49.602Z,980.7
2018-01-16T07:41:52.014Z,980.8
2018-01-16T07:42:54.707Z,980.7
2018-01-16T07:43:57.118Z,980.7
2018-01-16T07:44:59.526Z,980.7
2018-01-16T07:46:02.228Z,980.6
2018-01-16T07:47:04.648Z,980.6
2018-01-16T07:48:07.054Z,980.6
2018-01-16T07:49:09.740Z,980.5
2018-01-16T07:50:12.149Z,980.6
2018-01-16T07:51:14.840Z,980.6
2018-01-16T07:52:17.533Z,980.6
2018-01-16T07:53:19.964Z,980.6
2018-01-16T07:54:22.343Z,980.6
2018-01-16T07:55:24.754Z,980.6
2018-01-16T07:56:27.173Z,980.6
2018-01-16T07:57:29.577Z,980.6
2018-01-16T07:58:32.275Z,980.6
2018-01-16T07:59:34.692Z,980.6
2018-01-16T08:00:37.102Z,980.5
2018-01-16T08:01:39.494Z,980.5
2018-01-16T08:02:41.901Z,980.5
2018-01-16T08:03:44.313Z,980.5
2018-01-16T08:04:46.728Z,980.5
2018-01-16T08:05:49.138Z,980.5
2018-01-16T08:06:51.550Z,980.5
2018-01-16T08:07:53.960Z,980.5
2018-01-16T08:08:56.382Z,980.5
2018-01-16T08:09:59.065Z,980.5
2018-01-16T08:11:01.773Z,980.5
2018-01-16T08:12:04.185Z,980.5
2018-01-16T08:13:06.594Z,980.5
2018-01-16T08:14:09.003Z,980.5
2018-01-16T08:15:11.412Z,980.6
2018-01-16T08:16:13.823Z,980.6
2018-01-16T08:17:16.231Z,980.6
2018-01-16T08:18:18.639Z,980.6
2018-01-16T08:19:21.040Z,980.6
2018-01-16T08:20:23.749Z,980.6
2018-01-16T08:21:26.714Z,980.6
2018-01-16T08:22:29.121Z,980.6
2018-01-16T08:23:31.530Z,980.6
2018-01-16T08:24:33.937Z,980.6
2018-01-16T08:25:36.344Z,980.6
2018-01-16T08:26:38.748Z,980.6
2018-01-16T08:27:41.740Z,980.6
2018-01-16T08:28:44.144Z,980.6
2018-01-16T08:29:46.560Z,980.6
2018-01-16T08:30:48.974Z,980.7
2018-01-16T08:31:51.380Z,980.6
2018-01-16T08:32:53.780Z,980.6
2018-01-16T08:33:56.481Z,980.6
2018-01-16T08:34:58.880Z,980.6
2018-01-16T08:36:01.299Z,980.6
2018-01-16T08:37:03.995Z,980.6
2018-01-16T08:38:06.407Z,980.7
2018-01-16T08:39:08.813Z,980.7
2018-01-16T08:40:11.232Z,980.7
2018-01-16T08:41:13.636Z,980.7
2018-01-16T08:42:16.052Z,980.6
2018-01-16T08:43:18.748Z,980.6
2018-01-16T08:44:21.148Z,980.6
2018-01-16T08:45:23.583Z,980.7
2018-01-16T08:46:26.015Z,980.6
2018-01-16T08:47:28.426Z,980.7
2018-01-16T08:48:30.838Z,980.7
2018-01-16T08:49:33.247Z,980.6
2018-01-16T08:50:35.659Z,980.5
2018-01-16T08:51:38.081Z,980.6
2018-01-16T08:52:40.496Z,980.6
2018-01-16T08:53:42.906Z,980.6
2018-01-16T08:54:45.311Z,980.6
2018-01-16T08:55:47.725Z,980.6
2018-01-16T08:56:50.140Z,980.6
2018-01-16T08:57:52.544Z,980.5
2018-01-16T08:58:54.956Z,980.6
2018-01-16T08:59:57.359Z,980.6
2018-01-16T09:00:59.778Z,980.6
2018-01-16T09:02:02.212Z,980.6
2018-01-16T09:03:04.603Z,980.5
2018-01-16T09:04:07.013Z,980.6
2018-01-16T09:05:09.423Z,980.6
2018-01-16T09:06:11.826Z,980.5
2018-01-16T09:07:14.239Z,980.5
2018-01-16T09:08:16.638Z,980.6
2018-01-16T09:09:19.046Z,980.6
2018-01-16T09:10:21.496Z,980.6
2018-01-16T09:11:23.952Z,980.6
2018-01-16T09:12:26.355Z,980.6
2018-01-16T09:13:28.766Z,980.5
2018-01-16T09:14:31.291Z,980.5
2018-01-16T09:15:33.838Z,980.5
2018-01-16T09:16:36.325Z,980.5
2018-01-16T09:17:38.849Z,980.5
2018-01-16T09:18:41.952Z,980.5
2018-01-16T09:19:44.534Z,980.5
2018-01-16T09:20:47.597Z,980.6
2018-01-16T09:21:50.364Z,980.5
2018-01-16T09:22:53.086Z,980.6
2018-01-16T09:23:55.508Z,980.5
2018-01-16T09:24:57.927Z,980.5
2018-01-16T09:26:00.354Z,980.5
2018-01-16T09:27:02.867Z,980.5
2018-01-16T09:28:05.361Z,980.5
2018-01-16T09:29:07.840Z,980.5
2018-01-16T09:30:10.295Z,980.5
2018-01-16T09:31:13.126Z,980.4
2018-01-16T09:32:15.545Z,980.5
2018-01-16T09:33:17.975Z,980.4
2018-01-16T09:34:20.392Z,980.4
2018-01-16T09:35:22.797Z,980.5
2018-01-16T09:36:25.477Z,980.5
2018-01-16T09:37:28.182Z,980.4
2018-01-16T09:38:30.590Z,980.6
2018-01-16T09:39:33.285Z,980.5
2018-01-16T09:40:35.715Z,980.6
2018-01-16T09:41:38.143Z,980.5
2018-01-16T09:42:40.552Z,980.5
2018-01-16T09:43:42.970Z,980.5
2018-01-16T09:44:45.692Z,980.5
2018-01-16T09:45:48.121Z,980.5
2018-01-16T09:46:50.553Z,980.5
2018-01-16T09:47:52.988Z,980.5
2018-01-16T09:48:55.701Z,980.5
2018-01-16T09:49:58.146Z,980.5
2018-01-16T09:51:00.572Z,980.6
2018-01-16T09:52:03.008Z,980.5
2018-01-16T09:53:06.018Z,980.6
2018-01-16T09:54:08.443Z,980.5
2018-01-16T09:55:10.878Z,980.6
2018-01-16T09:56:13.317Z,980.6
2018-01-16T09:57:15.868Z,980.6
2018-01-16T09:58:18.286Z,980.5
2018-01-16T09:59:20.721Z,980.5
2018-01-16T10:00:23.444Z,980.6
2018-01-16T10:01:25.878Z,980.5
2018-01-16T10:02:28.304Z,980.5
2018-01-16T10:03:30.736Z,980.5
2018-01-16T10:04:33.161Z,980.5
2018-01-16T10:05:35.580Z,980.5
2018-01-16T10:06:38.023Z,980.5
2018-01-16T10:07:40.460Z,980.6
2018-01-16T10:08:42.897Z,980.6
2018-01-16T10:09:45.306Z,980.5
2018-01-16T10:10:47.722Z,980.5
2018-01-16T10:11:50.135Z,980.6
2018-01-16T10:12:52.821Z,980.5
2018-01-16T10:13:55.509Z,980.5
2018-01-16T10:14:57.934Z,980.5
2018-01-16T10:16:00.623Z,980.5
2018-01-16T10:17:03.037Z,980.5
2018-01-16T10:18:05.732Z,980.6
2018-01-16T10:19:08.144Z,980.5
2018-01-16T10:20:10.837Z,980.5
2018-01-16T10:21:13.248Z,980.5
2018-01-16T10:22:15.938Z,980.5
2018-01-16T10:23:18.641Z,980.5
2018-01-16T10:24:21.048Z,980.5
2018-01-16T10:25:23.469Z,980.5
2018-01-16T10:26:25.878Z,980.5
2018-01-16T10:27:28.575Z,980.6
2018-01-16T10:28:30.989Z,980.5
2018-01-16T10:29:33.397Z,980.5
2018-01-16T10:30:35.804Z,980.5
2018-01-16T10:31:38.504Z,980.6
2018-01-16T10:32:40.901Z,980.5
2018-01-16T10:33:43.613Z,980.6
2018-01-16T10:34:46.027Z,980.6
2018-01-16T10:35:48.440Z,980.5
2018-01-16T10:36:50.858Z,980.5
2018-01-16T10:37:53.265Z,980.5
2018-01-16T10:38:55.671Z,980.5
2018-01-16T10:39:58.089Z,980.4
2018-01-16T10:41:00.768Z,980.4
2018-01-16T10:42:03.188Z,980.4
2018-01-16T10:43:05.598Z,980.3
2018-01-16T10:44:08.298Z,980.3
2018-01-16T10:45:10.991Z,980.3
2018-01-16T10:46:13.410Z,980.3
2018-01-16T10:47:15.815Z,980.3
2018-01-16T10:48:18.235Z,980.3
2018-01-16T10:49:20.644Z,980.3
2018-01-16T10:50:23.051Z,980.2
2018-01-16T10:51:25.460Z,980.2
2018-01-16T10:52:27.877Z,980.2
2018-01-16T10:53:30.294Z,980.2
2018-01-16T10:54:32.710Z,980.1
2018-01-16T10:55:35.121Z,980.1
2018-01-16T10:56:37.524Z,980.1
2018-01-16T10:57:39.948Z,980.1
2018-01-16T10:58:42.363Z,980.1
2018-01-16T10:59:44.766Z,980.1
2018-01-16T11:00:47.469Z,980
2018-01-16T11:01:49.872Z,980
2018-01-16T11:02:52.614Z,980.1
2018-01-16T11:03:55.091Z,980
2018-01-16T11:04:57.503Z,980.1
2018-01-16T11:06:00.515Z,980.1
2018-01-16T11:07:02.941Z,980.1
2018-01-16T11:08:05.347Z,980
2018-01-16T11:09:07.757Z,980.1
2018-01-16T11:10:10.171Z,980
2018-01-16T11:11:12.584Z,980.1
2018-01-16T11:12:15.009Z,980.1
2018-01-16T11:13:17.433Z,980.1
2018-01-16T11:14:19.840Z,980.1
2018-01-16T11:15:22.254Z,980.1
2018-01-16T11:16:24.667Z,980.1
2018-01-16T11:17:27.079Z,980
2018-01-16T11:18:29.492Z,980.1
2018-01-16T11:19:31.897Z,980.1
2018-01-16T11:20:34.295Z,980.1
2018-01-16T11:21:36.722Z,980.1
2018-01-16T11:22:39.130Z,980
2018-01-16T11:23:41.538Z,980
2018-01-16T11:24:43.949Z,980
2018-01-16T11:25:46.355Z,980
2018-01-16T11:26:48.766Z,980
2018-01-16T11:27:51.463Z,980
2018-01-16T11:28:53.875Z,980.1
2018-01-16T11:29:56.288Z,980.1
2018-01-16T11:30:58.681Z,980
2018-01-16T11:32:01.111Z,980.1
2018-01-16T11:33:03.522Z,980.1
2018-01-16T11:34:06.237Z,980.2
2018-01-16T11:35:08.653Z,980.2
2018-01-16T11:36:11.058Z,980.2
2018-01-16T11:37:13.461Z,980.1
2018-01-16T11:38:15.880Z,980.1
2018-01-16T11:39:18.570Z,980.1
2018-01-16T11:40:21.559Z,980
2018-01-16T11:41:24.256Z,980
2018-01-16T11:42:26.657Z,980
2018-01-16T11:43:29.074Z,980
2018-01-16T11:44:31.483Z,980
2018-01-16T11:45:34.166Z,980
2018-01-16T11:46:36.585Z,980
2018-01-16T11:47:38.986Z,980
2018-01-16T11:48:41.401Z,979.9
2018-01-16T11:49:43.811Z,979.9
2018-01-16T11:50:46.224Z,980
2018-01-16T11:51:48.637Z,979.9
2018-01-16T11:52:51.053Z,979.9
2018-01-16T11:53:53.460Z,980
2018-01-16T11:54:55.860Z,979.9
2018-01-16T11:55:58.264Z,979.9
2018-01-16T11:57:00.692Z,979.9
2018-01-16T11:58:03.384Z,979.9
2018-01-16T11:59:06.104Z,979.9
2018-01-16T12:00:08.808Z,979.9
2018-01-16T12:01:11.219Z,979.9
2018-01-16T12:02:13.921Z,979.9
2018-01-16T12:03:16.618Z,979.9
2018-01-16T12:04:19.023Z,979.9
2018-01-16T12:05:21.434Z,979.9
2018-01-16T12:06:23.847Z,979.9
2018-01-16T12:07:26.258Z,979.9
2018-01-16T12:08:28.676Z,979.9
2018-01-16T12:09:31.074Z,979.9
2018-01-16T12:10:33.481Z,979.9
2018-01-16T12:11:35.932Z,979.9
2018-01-16T12:12:38.303Z,979.9
2018-01-16T12:13:40.715Z,979.9
2018-01-16T12:14:43.132Z,979.9
2018-01-16T12:15:45.543Z,979.9
2018-01-16T12:16:47.961Z,979.8
2018-01-16T12:17:50.376Z,979.8
2018-01-16T12:18:52.773Z,979.9
2018-01-16T12:19:55.478Z,979.8
2018-01-16T12:20:57.896Z,979.8
2018-01-16T12:22:00.577Z,979.8
2018-01-16T12:23:02.994Z,979.8
2018-01-16T12:24:05.406Z,979.8
2018-01-16T12:25:07.816Z,979.7
2018-01-16T12:26:10.228Z,979.8
2018-01-16T12:27:12.639Z,979.8
2018-01-16T12:28:15.055Z,979.7
2018-01-16T12:29:17.469Z,979.7
2018-01-16T12:30:19.882Z,979.7
2018-01-16T12:31:22.293Z,979.7
2018-01-16T12:32:24.701Z,979.8
2018-01-16T12:33:27.117Z,979.8
2018-01-16T12:34:29.525Z,979.8
2018-01-16T12:35:31.934Z,979.8
2018-01-16T12:36:34.639Z,979.7
2018-01-16T12:37:37.046Z,979.7
2018-01-16T12:38:39.456Z,979.7
2018-01-16T12:39:41.877Z,979.7
2018-01-16T12:40:44.308Z,979.7
2018-01-16T12:41:46.741Z,979.7
2018-01-16T12:42:49.181Z,979.7
2018-01-16T12:43:51.604Z,979.8
2018-01-16T12:44:54.318Z,979.7
2018-01-16T12:45:56.761Z,979.7
2018-01-16T12:46:59.187Z,979.7
2018-01-16T12:48:01.629Z,979.7
2018-01-16T12:49:04.333Z,979.6
2018-01-16T12:50:07.058Z,979.6
2018-01-16T12:51:10.048Z,979.6
2018-01-16T12:52:12.483Z,979.7
2018-01-16T12:53:14.928Z,979.6
2018-01-16T12:54:17.341Z,979.6
2018-01-16T12:55:19.771Z,979.6
2018-01-16T12:56:22.201Z,979.6
2018-01-16T12:57:24.920Z,979.7
2018-01-16T12:58:27.351Z,979.6
2018-01-16T12:59:29.770Z,979.6
2018-01-16T13:00:32.175Z,979.6
2018-01-16T13:01:34.595Z,979.6
2018-01-16T13:02:37.002Z,979.6
2018-01-16T13:03:39.407Z,979.5
2018-01-16T13:04:42.098Z,979.6
2018-01-16T13:05:44.516Z,979.5
2018-01-16T13:06:47.210Z,979.5
2018-01-16T13:07:49.647Z,979.5
2018-01-16T13:08:52.074Z,979.5
2018-01-16T13:09:54.830Z,979.5
2018-01-16T13:10:57.274Z,979.5
2018-01-16T13:11:59.996Z,979.5
2018-01-16T13:13:02.426Z,979.5
2018-01-16T13:14:04.837Z,979.5
2018-01-16T13:15:07.274Z,979.5
2018-01-16T13:16:09.720Z,979.5
2018-01-16T13:17:12.152Z,979.5
2018-01-16T13:18:14.559Z,979.5
2018-01-16T13:19:17.266Z,979.5
2018-01-16T13:20:19.693Z,979.5
2018-01-16T13:21:22.122Z,979.5
2018-01-16T13:22:24.556Z,979.5
2018-01-16T13:23:26.980Z,979.5
2018-01-16T13:24:29.397Z,979.5
2018-01-16T13:25:31.794Z,979.5
2018-01-16T13:26:34.214Z,979.5
2018-01-16T13:27:36.637Z,979.4
2018-01-16T13:28:39.045Z,979.4
2018-01-16T13:29:41.457Z,979.5